MMD12C EDLW-EDNY
Flight info
| Callsign | MMD12C |
|---|---|
| Flight time | N/A |
| Altitude | 19000 |
| Route | GMH8Q/06 GMH Z841 BIGSU L603 BOMBI N850 INKAM T725 LAMGO T721 SUL Z714 LEBSO N851 LOKTA T122 ARFAS |
| Aircraft | AT76/M-SDFGIRY/S |
Departure
| Time | 2026-05-01 09:31 |
|---|---|
| Airport | Dortmund Airport (EDLW) |
Arrival
| Time | N/A |
|---|---|
| Airport | Bodensee Airport Friedrichshafen (EDNY) |
| Time | Latitude | Longitude | Altitude | Speed | Heading |
|---|---|---|---|---|---|
| 2026-05-01 09:03 | 51.51558 | 7.61236 | 419 ft | 0 kts | 330° |
| 2026-05-01 09:03 | 51.51581 | 7.61299 | 417 ft | 0 kts | 330° |
| 2026-05-01 09:26 | 51.51601 | 7.61270 | 415 ft | 8 kts | 308° |
| 2026-05-01 09:26 | 51.51612 | 7.61152 | 411 ft | 12 kts | 255° |
| 2026-05-01 09:27 | 51.51600 | 7.61103 | 418 ft | 0 kts | 246° |
| 2026-05-01 09:27 | 51.51591 | 7.61072 | 415 ft | 7 kts | 246° |
| 2026-05-01 09:27 | 51.51564 | 7.60975 | 416 ft | 11 kts | 243° |
| 2026-05-01 09:28 | 51.51523 | 7.60859 | 420 ft | 13 kts | 239° |
| 2026-05-01 09:28 | 51.51475 | 7.60733 | 423 ft | 13 kts | 238° |
| 2026-05-01 09:28 | 51.51429 | 7.60600 | 416 ft | 14 kts | 243° |
| 2026-05-01 09:28 | 51.51383 | 7.60459 | 423 ft | 15 kts | 241° |
| 2026-05-01 09:29 | 51.51443 | 7.60233 | 418 ft | 15 kts | 345° |
| 2026-05-01 09:29 | 51.51501 | 7.60278 | 425 ft | 0 kts | 60° |
| 2026-05-01 09:30 | 51.51503 | 7.60283 | 425 ft | 0 kts | 60° |
| 2026-05-01 09:30 | 51.51513 | 7.60311 | 420 ft | 18 kts | 61° |
| 2026-05-01 09:30 | 51.52022 | 7.61759 | 418 ft | 121 kts | 62° |
| 2026-05-01 09:31 | 51.52470 | 7.62962 | 823 ft | 127 kts | 64° |
| 2026-05-01 09:31 | 51.52925 | 7.64173 | 1386 ft | 127 kts | 66° |
| 2026-05-01 09:31 | 51.53805 | 7.66670 | 2196 ft | 140 kts | 67° |
| 2026-05-01 09:32 | 51.54277 | 7.68143 | 2425 ft | 159 kts | 67° |
| 2026-05-01 09:32 | 51.55406 | 7.71495 | 3107 ft | 175 kts | 66° |
| 2026-05-01 09:32 | 51.56002 | 7.73220 | 3576 ft | 175 kts | 71° |
| 2026-05-01 09:33 | 51.56057 | 7.75030 | 3882 ft | 161 kts | 120° |
| 2026-05-01 09:33 | 51.55207 | 7.76050 | 4263 ft | 160 kts | 168° |
| 2026-05-01 09:33 | 51.53316 | 7.77675 | 4808 ft | 163 kts | 150° |
| 2026-05-01 09:34 | 51.52338 | 7.78636 | 5172 ft | 164 kts | 135° |
| 2026-05-01 09:34 | 51.51446 | 7.79717 | 5354 ft | 170 kts | 161° |
| 2026-05-01 09:34 | 51.49109 | 7.80742 | 5962 ft | 177 kts | 158° |
| 2026-05-01 09:35 | 51.47956 | 7.81465 | 6322 ft | 179 kts | 155° |
| 2026-05-01 09:35 | 51.45691 | 7.83196 | 6928 ft | 182 kts | 151° |
| 2026-05-01 09:35 | 51.44557 | 7.84112 | 7291 ft | 182 kts | 151° |
| 2026-05-01 09:36 | 51.43458 | 7.85012 | 7813 ft | 175 kts | 150° |
| 2026-05-01 09:36 | 51.42375 | 7.85909 | 8150 ft | 175 kts | 150° |
| 2026-05-01 09:36 | 51.41285 | 7.86801 | 8465 ft | 176 kts | 151° |
| 2026-05-01 09:36 | 51.40185 | 7.87684 | 8761 ft | 177 kts | 152° |
| 2026-05-01 09:37 | 51.39077 | 7.88559 | 9090 ft | 178 kts | 152° |
| 2026-05-01 09:37 | 51.36849 | 7.90311 | 9680 ft | 180 kts | 151° |
| 2026-05-01 09:37 | 51.35728 | 7.91203 | 9981 ft | 180 kts | 150° |
| 2026-05-01 09:38 | 51.33477 | 7.93000 | 10471 ft | 182 kts | 151° |
| 2026-05-01 09:38 | 51.32340 | 7.93905 | 10712 ft | 183 kts | 150° |
| 2026-05-01 09:38 | 51.31201 | 7.94823 | 10956 ft | 184 kts | 150° |
| 2026-05-01 09:39 | 51.28935 | 7.96599 | 11469 ft | 186 kts | 151° |
| 2026-05-01 09:39 | 51.27761 | 7.97527 | 11724 ft | 186 kts | 151° |
| 2026-05-01 09:39 | 51.26609 | 7.98432 | 11969 ft | 188 kts | 150° |
| 2026-05-01 09:40 | 51.25435 | 7.99357 | 12208 ft | 188 kts | 150° |
| 2026-05-01 09:40 | 51.23074 | 8.01221 | 12656 ft | 191 kts | 150° |
| 2026-05-01 09:40 | 51.21880 | 8.02159 | 12898 ft | 192 kts | 150° |
| 2026-05-01 09:41 | 51.20682 | 8.03099 | 13138 ft | 193 kts | 150° |
| 2026-05-01 09:41 | 51.18266 | 8.05001 | 13620 ft | 195 kts | 150° |
| 2026-05-01 09:41 | 51.17044 | 8.05958 | 13825 ft | 196 kts | 150° |
| 2026-05-01 09:42 | 51.15817 | 8.06922 | 14046 ft | 197 kts | 150° |
| 2026-05-01 09:42 | 51.14584 | 8.07893 | 14262 ft | 198 kts | 150° |
| 2026-05-01 09:42 | 51.12097 | 8.09841 | 14682 ft | 200 kts | 150° |
| 2026-05-01 09:43 | 51.09595 | 8.11804 | 15108 ft | 201 kts | 150° |
| 2026-05-01 09:43 | 51.08330 | 8.12789 | 15268 ft | 204 kts | 150° |
| 2026-05-01 09:43 | 51.07033 | 8.13803 | 15327 ft | 211 kts | 150° |
| 2026-05-01 09:44 | 51.04308 | 8.15930 | 15371 ft | 225 kts | 150° |
| 2026-05-01 09:44 | 51.02886 | 8.17041 | 15381 ft | 230 kts | 150° |
| 2026-05-01 09:44 | 51.01434 | 8.18173 | 15378 ft | 235 kts | 151° |
| 2026-05-01 09:45 | 50.99972 | 8.19314 | 15385 ft | 238 kts | 150° |
| 2026-05-01 09:45 | 50.96960 | 8.21658 | 15392 ft | 244 kts | 151° |
| 2026-05-01 09:45 | 50.95425 | 8.22849 | 15384 ft | 247 kts | 151° |
| 2026-05-01 09:46 | 50.93879 | 8.24053 | 15396 ft | 249 kts | 151° |
| 2026-05-01 09:46 | 50.92316 | 8.25260 | 15388 ft | 251 kts | 151° |
| 2026-05-01 09:46 | 50.90738 | 8.26481 | 15385 ft | 253 kts | 151° |
| 2026-05-01 09:46 | 50.89157 | 8.27715 | 15374 ft | 253 kts | 150° |
| 2026-05-01 09:47 | 50.87577 | 8.28953 | 15379 ft | 254 kts | 150° |
| 2026-05-01 09:47 | 50.85991 | 8.30192 | 15376 ft | 254 kts | 150° |
| 2026-05-01 09:47 | 50.84407 | 8.31428 | 15380 ft | 254 kts | 150° |
| 2026-05-01 09:47 | 50.82825 | 8.32667 | 15382 ft | 254 kts | 151° |
| 2026-05-01 09:48 | 50.81240 | 8.33907 | 15381 ft | 255 kts | 150° |
| 2026-05-01 09:48 | 50.79653 | 8.35150 | 15381 ft | 255 kts | 150° |
| 2026-05-01 09:48 | 50.78063 | 8.36391 | 15379 ft | 255 kts | 151° |
| 2026-05-01 09:48 | 50.76477 | 8.37631 | 15383 ft | 254 kts | 151° |
| 2026-05-01 09:49 | 50.74894 | 8.38871 | 15383 ft | 254 kts | 150° |
| 2026-05-01 09:49 | 50.73361 | 8.40073 | 15389 ft | 254 kts | 150° |
| 2026-05-01 09:49 | 50.71774 | 8.41318 | 15399 ft | 255 kts | 150° |
| 2026-05-01 09:49 | 50.70180 | 8.42569 | 15384 ft | 256 kts | 150° |
| 2026-05-01 09:50 | 50.68584 | 8.43821 | 15380 ft | 256 kts | 151° |
| 2026-05-01 09:50 | 50.66990 | 8.45069 | 15395 ft | 256 kts | 151° |
| 2026-05-01 09:50 | 50.65394 | 8.46324 | 15386 ft | 257 kts | 151° |
| 2026-05-01 09:50 | 50.63796 | 8.47579 | 15383 ft | 256 kts | 151° |
| 2026-05-01 09:51 | 50.62201 | 8.48830 | 15388 ft | 256 kts | 151° |
| 2026-05-01 09:51 | 50.60603 | 8.50082 | 15392 ft | 257 kts | 151° |
| 2026-05-01 09:51 | 50.59003 | 8.51339 | 15401 ft | 257 kts | 150° |
| 2026-05-01 09:51 | 50.57418 | 8.52587 | 15397 ft | 258 kts | 151° |
| 2026-05-01 09:52 | 50.55787 | 8.53868 | 15388 ft | 259 kts | 151° |
| 2026-05-01 09:52 | 50.54181 | 8.55134 | 15390 ft | 258 kts | 151° |
| 2026-05-01 09:52 | 50.52599 | 8.56379 | 15401 ft | 258 kts | 151° |
| 2026-05-01 09:52 | 50.50992 | 8.57642 | 15400 ft | 259 kts | 151° |
| 2026-05-01 09:53 | 50.49382 | 8.58906 | 15393 ft | 259 kts | 150° |
| 2026-05-01 09:53 | 50.47774 | 8.60170 | 15408 ft | 259 kts | 150° |
| 2026-05-01 09:53 | 50.46158 | 8.61440 | 15395 ft | 260 kts | 151° |
| 2026-05-01 09:53 | 50.44542 | 8.62705 | 15395 ft | 260 kts | 151° |
| 2026-05-01 09:54 | 50.42921 | 8.63974 | 15391 ft | 260 kts | 151° |
| 2026-05-01 09:54 | 50.41314 | 8.65235 | 15385 ft | 259 kts | 151° |
| 2026-05-01 09:54 | 50.39703 | 8.66497 | 15405 ft | 259 kts | 151° |
| 2026-05-01 09:54 | 50.38084 | 8.67763 | 15401 ft | 260 kts | 151° |
| 2026-05-01 09:55 | 50.36467 | 8.69029 | 15396 ft | 260 kts | 150° |
| 2026-05-01 09:55 | 50.35990 | 8.69403 | 15398 ft | 260 kts | 151° |
| 2026-05-01 09:55 | 50.35209 | 8.70013 | 15398 ft | 262 kts | 151° |
| 2026-05-01 09:56 | 50.34126 | 8.70869 | 15396 ft | 265 kts | 150° |
| 2026-05-01 09:56 | 50.32498 | 8.72151 | 15387 ft | 269 kts | 151° |
| 2026-05-01 09:56 | 50.30818 | 8.73468 | 15384 ft | 271 kts | 150° |
| 2026-05-01 09:56 | 50.29126 | 8.74794 | 15387 ft | 273 kts | 150° |
| 2026-05-01 09:57 | 50.27421 | 8.76130 | 15383 ft | 275 kts | 151° |
| 2026-05-01 09:57 | 50.27070 | 8.76404 | 15389 ft | 275 kts | 151° |
| 2026-05-01 09:57 | 50.25690 | 8.77482 | 15389 ft | 276 kts | 151° |
| 2026-05-01 09:58 | 50.23968 | 8.78825 | 15387 ft | 277 kts | 151° |
| 2026-05-01 09:58 | 50.22241 | 8.80172 | 15382 ft | 278 kts | 151° |